Time;durP1;ratioP1;P1;durP2;ratioP2;P2;SDS_P1;SDS_P2;PMS_P1;PMS_P2;Temp;Humidity;BMP_temperature;BMP_pressure;BME280_temperature;BME280_humidity;BME280_pressure;Samples;Min_cycle;Max_cycle;Signal;HPM_P1;HPM_P2
2022/03/25 00:00:47;;;;;;;;;;;;;;;;;;5099265;28;19915;-25
2022/03/25 00:03:13;;;;;;;;;;;;;;;;;;5117243;28;20355;-25
2022/03/25 00:05:39;;;;;;;;;;;;;;;;;;5117842;28;20227;-25
2022/03/25 00:08:05;;;;;;;;;;;;;;;;;;5117464;28;19908;-25
2022/03/25 00:10:31;;;;;;;;;;;;;;;;;;5117481;28;19973;-25
2022/03/25 00:12:57;;;;;;;;;;;;;;;;;;5117053;28;19912;-25
2022/03/25 00:15:23;;;;;;;;;;;;;;;;;;5117624;28;19907;-25
2022/03/25 00:17:49;;;;;;;;;;;;;;;;;;5117002;28;19915;-25
2022/03/25 00:20:15;;;;;;;;;;;;;;;;;;5116891;28;20320;-25
2022/03/25 00:22:41;;;;;;;;;;;;;;;;;;5116852;28;19911;-25
2022/03/25 00:25:08;;;;;;;;;;;;;;;;;;5098956;28;19916;-25
2022/03/25 00:27:34;;;;;;;;;;;;;;;;;;5116706;28;19923;-25
2022/03/25 00:30:00;;;;;;;;;;;;;;;;;;5116754;28;19911;-25
2022/03/25 00:32:26;;;;;;;;;;;;;;;;;;5116907;28;19911;-25
2022/03/25 00:34:52;;;;;;;;;;;;;;;;;;5116958;28;19976;-25
2022/03/25 00:37:19;;;;;;;;;;;;;;;;;;5116088;28;20000;-25
2022/03/25 00:39:45;;;;;;;;;;;;;;;;;;5117126;28;19912;-25
2022/03/25 00:42:13;;;;;;;;;;;;;;;;;;5116374;28;19923;-25
2022/03/25 00:44:39;;;;;;;;;;;;;;;;;;5116391;28;20432;-25
2022/03/25 00:47:05;;;;;;;;;;;;;;;;;;5116732;28;19969;-26
2022/03/25 00:49:32;;;;;;;;;;;;;;;;;;5098407;28;19968;-25
2022/03/25 00:51:58;;;;;;;;;;;;;;;;;;5116611;28;19908;-25
2022/03/25 00:54:24;;;;;;;;;;;;;;;;;;5116312;28;19934;-25
2022/03/25 00:56:50;;;;;;;;;;;;;;;;;;5116828;28;20334;-25
2022/03/25 00:59:16;;;;;;;;;;;;;;;;;;5116232;28;19912;-25
2022/03/25 01:01:42;;;;;;;;;;;;;;;;;;5116008;28;19911;-25
2022/03/25 01:04:08;;;;;;;;;;;;;;;;;;5104595;28;19920;-25
2022/03/25 01:06:34;;;;;;;;;;;;;;;;;;5095688;28;19931;-26
2022/03/25 01:09:00;;;;;;;;;;;;;;;;;;5095648;28;19916;-25
2022/03/25 01:11:27;;;;;;;;;;;;;;;;;;5096206;28;19908;-25
2022/03/25 01:13:53;;;;;;;;;;;;;;;;;;5095424;28;20365;-25
2022/03/25 01:16:19;;;;;;;;;;;;;;;;;;5095812;28;19904;-25
2022/03/25 01:18:44;;;;;;;;;;;;;;;;;;5095490;28;19935;-25
2022/03/25 01:21:10;;;;;;;;;;;;;;;;;;5095331;28;19916;-25
2022/03/25 01:23:36;;;;;;;;;;;;;;;;;;5095426;28;19915;-25
2022/03/25 01:26:03;;;;;;;;;;;;;;;;;;5095432;28;19915;-25
2022/03/25 01:28:34;;;;;;;;;;;;;;;;;;5095654;28;19934;-25
2022/03/25 01:31:00;;;;;;;;;;;;;;;;;;5095577;28;19915;-25
2022/03/25 01:33:27;;;;;;;;;;;;;;;;;;5095442;28;19917;-25
2022/03/25 01:35:53;;;;;;;;;;;;;;;;;;5095487;28;19912;-25
2022/03/25 01:38:19;;;;;;;;;;;;;;;;;;5095851;28;20345;-25
2022/03/25 01:40:45;;;;;;;;;;;;;;;;;;5095130;28;20014;-25
2022/03/25 01:43:11;;;;;;;;;;;;;;;;;;5095095;28;20351;-25
2022/03/25 01:45:37;;;;;;;;;;;;;;;;;;5095733;28;19919;-24
2022/03/25 01:48:03;;;;;;;;;;;;;;;;;;5094787;28;19908;-25
2022/03/25 01:50:29;;;;;;;;;;;;;;;;;;5094905;28;19938;-25
2022/03/25 01:52:55;;;;;;;;;;;;;;;;;;5095306;28;19912;-25
2022/03/25 01:55:24;;;;;;;;;;;;;;;;;;5095563;28;19951;-25
2022/03/25 01:57:50;;;;;;;;;;;;;;;;;;5077276;28;19912;-25
2022/03/25 02:00:17;;;;;;;;;;;;;;;;;;5094964;28;19938;-25
2022/03/25 02:02:43;;;;;;;;;;;;;;;;;;5094937;28;19934;-26
2022/03/25 02:05:09;;;;;;;;;;;;;;;;;;5094855;28;19966;-26
2022/03/25 02:07:35;;;;;;;;;;;;;;;;;;5094923;28;20355;-26
2022/03/25 02:10:01;;;;;;;;;;;;;;;;;;5095237;28;20007;-26
2022/03/25 02:12:28;;;;;;;;;;;;;;;;;;5095083;28;19912;-25
2022/03/25 02:14:55;;;;;;;;;;;;;;;;;;5095122;28;19913;-25
2022/03/25 02:17:21;;;;;;;;;;;;;;;;;;5094813;28;19918;-25
2022/03/25 02:19:47;;;;;;;;;;;;;;;;;;5095403;28;19912;-26
2022/03/25 02:22:13;;;;;;;;;;;;;;;;;;5094737;28;20342;-25
2022/03/25 02:24:38;;;;;;;;;;;;;;;;;;5094824;28;19990;-25
2022/03/25 02:27:06;;;;;;;;;;;;;;;;;;5094790;28;19965;-26
2022/03/25 02:29:33;;;;;;;;;;;;;;;;;;5094679;28;19916;-25
2022/03/25 02:31:59;;;;;;;;;;;;;;;;;;5094738;28;19908;-25
2022/03/25 02:34:25;;;;;;;;;;;;;;;;;;5094763;28;20275;-25
2022/03/25 02:36:51;;;;;;;;;;;;;;;;;;5094693;28;19919;-25
2022/03/25 02:39:18;;;;;;;;;;;;;;;;;;5094988;28;19915;-26
2022/03/25 02:41:44;;;;;;;;;;;;;;;;;;5094743;28;19916;-25
2022/03/25 02:44:10;;;;;;;;;;;;;;;;;;5094609;28;19912;-26
2022/03/25 02:46:36;;;;;;;;;;;;;;;;;;5094676;28;19908;-25
2022/03/25 02:49:02;;;;;;;;;;;;;;;;;;5094640;28;20259;-25
2022/03/25 02:51:28;;;;;;;;;;;;;;;;;;5094843;28;19965;-25
2022/03/25 02:53:56;;;;;;;;;;;;;;;;;;5094734;28;19922;-26
2022/03/25 02:56:22;;;;;;;;;;;;;;;;;;5094476;28;20049;-24
2022/03/25 02:58:48;;;;;;;;;;;;;;;;;;5094465;28;20006;-25
2022/03/25 03:01:19;;;;;;;;;;;;;;;;;;5097474;28;20016;-25
2022/03/25 03:03:45;;;;;;;;;;;;;;;;;;5087967;28;19919;-25
2022/03/25 03:06:11;;;;;;;;;;;;;;;;;;5118719;28;20351;-25
2022/03/25 03:08:37;;;;;;;;;;;;;;;;;;5118439;28;19912;-25
2022/03/25 03:11:03;;;;;;;;;;;;;;;;;;5118350;28;19912;-25
2022/03/25 03:13:29;;;;;;;;;;;;;;;;;;5118375;28;19912;-24
2022/03/25 03:15:55;;;;;;;;;;;;;;;;;;5118271;28;19908;-25
2022/03/25 03:18:21;;;;;;;;;;;;;;;;;;5118443;28;19938;-25
2022/03/25 03:20:47;;;;;;;;;;;;;;;;;;5118401;28;19911;-25
2022/03/25 03:23:13;;;;;;;;;;;;;;;;;;5118150;28;20011;-25
2022/03/25 03:25:39;;;;;;;;;;;;;;;;;;5118310;28;19938;-25
2022/03/25 03:28:05;;;;;;;;;;;;;;;;;;5118571;28;20342;-25
2022/03/25 03:30:31;;;;;;;;;;;;;;;;;;5117952;28;19908;-25
2022/03/25 03:32:58;;;;;;;;;;;;;;;;;;5118115;28;20296;-25
2022/03/25 03:35:24;;;;;;;;;;;;;;;;;;5117838;28;19915;-25
2022/03/25 03:37:50;;;;;;;;;;;;;;;;;;5117853;28;19913;-25
2022/03/25 03:40:16;;;;;;;;;;;;;;;;;;5117766;28;19919;-25
2022/03/25 03:42:42;;;;;;;;;;;;;;;;;;5117617;28;19912;-25
2022/03/25 03:45:08;;;;;;;;;;;;;;;;;;5117671;28;19912;-26
2022/03/25 03:47:34;;;;;;;;;;;;;;;;;;5118163;28;19915;-26
2022/03/25 03:50:00;;;;;;;;;;;;;;;;;;5117863;28;20247;-26
2022/03/25 03:52:26;;;;;;;;;;;;;;;;;;5117490;28;19911;-25
2022/03/25 03:54:52;;;;;;;;;;;;;;;;;;5117496;28;20406;-25
2022/03/25 03:57:18;;;;;;;;;;;;;;;;;;5117457;28;19951;-25
2022/03/25 03:59:44;;;;;;;;;;;;;;;;;;5117396;28;19911;-25
2022/03/25 04:02:10;;;;;;;;;;;;;;;;;;5117449;28;20306;-26
2022/03/25 04:04:36;;;;;;;;;;;;;;;;;;5117095;28;20252;-25
2022/03/25 04:07:02;;;;;;;;;;;;;;;;;;5117266;28;19969;-25
2022/03/25 04:09:28;;;;;;;;;;;;;;;;;;5117116;28;19941;-26
2022/03/25 04:11:54;;;;;;;;;;;;;;;;;;5116241;28;19908;-25
2022/03/25 04:14:20;;;;;;;;;;;;;;;;;;5117163;28;19916;-26
2022/03/25 04:16:46;;;;;;;;;;;;;;;;;;5117096;28;19912;-25
2022/03/25 04:19:12;;;;;;;;;;;;;;;;;;5116968;28;20227;-25
2022/03/25 04:21:38;;;;;;;;;;;;;;;;;;5117416;28;20355;-26
2022/03/25 04:24:04;;;;;;;;;;;;;;;;;;5117009;28;19947;-26
2022/03/25 04:26:30;;;;;;;;;;;;;;;;;;5116902;28;19927;-25
2022/03/25 04:28:56;;;;;;;;;;;;;;;;;;5116890;28;20302;-26
2022/03/25 04:31:22;;;;;;;;;;;;;;;;;;5117074;28;19919;-22
2022/03/25 04:33:48;;;;;;;;;;;;;;;;;;5116704;28;19912;-23
2022/03/25 04:36:14;;;;;;;;;;;;;;;;;;5098651;28;19911;-22
2022/03/25 04:38:40;;;;;;;;;;;;;;;;;;5116949;28;19922;-23
2022/03/25 04:41:09;;;;;;;;;;;;;;;;;;5116771;28;19916;-22
2022/03/25 04:43:35;;;;;;;;;;;;;;;;;;5116338;28;19912;-22
2022/03/25 04:46:01;;;;;;;;;;;;;;;;;;5098731;28;19907;-22
2022/03/25 04:48:27;;;;;;;;;;;;;;;;;;5116297;28;19935;-22
2022/03/25 04:50:53;;;;;;;;;;;;;;;;;;5116355;28;19915;-23
2022/03/25 04:53:19;;;;;;;;;;;;;;;;;;5116261;28;19922;-25
2022/03/25 04:55:45;;;;;;;;;;;;;;;;;;5116123;28;19912;-23
2022/03/25 04:58:11;;;;;;;;;;;;;;;;;;5116483;28;20354;-22
2022/03/25 05:00:37;;;;;;;;;;;;;;;;;;5116114;28;19912;-22
2022/03/25 05:03:03;;;;;;;;;;;;;;;;;;5115877;28;19931;-22
2022/03/25 05:05:31;;;;;;;;;;;;;;;;;;5116328;28;19931;-22
2022/03/25 05:07:57;;;;;;;;;;;;;;;;;;5116037;28;19912;-25
2022/03/25 05:10:23;;;;;;;;;;;;;;;;;;5116103;28;20388;-22
2022/03/25 05:12:49;;;;;;;;;;;;;;;;;;5115327;28;20331;-22
2022/03/25 05:15:15;;;;;;;;;;;;;;;;;;5115636;28;19919;-22
2022/03/25 05:17:42;;;;;;;;;;;;;;;;;;5115934;28;19990;-22
2022/03/25 05:20:08;;;;;;;;;;;;;;;;;;5097820;28;19912;-22
2022/03/25 05:22:34;;;;;;;;;;;;;;;;;;5115581;28;19965;-22
2022/03/25 05:25:00;;;;;;;;;;;;;;;;;;5115519;28;19916;-21
2022/03/25 05:27:26;;;;;;;;;;;;;;;;;;5115567;28;20026;-22
2022/03/25 05:29:52;;;;;;;;;;;;;;;;;;5115865;28;19923;-22
2022/03/25 05:32:18;;;;;;;;;;;;;;;;;;5115842;28;20227;-23
2022/03/25 05:34:44;;;;;;;;;;;;;;;;;;5115783;28;20355;-22
2022/03/25 05:37:10;;;;;;;;;;;;;;;;;;5115442;28;19915;-23
2022/03/25 05:39:36;;;;;;;;;;;;;;;;;;5115666;28;19922;-22
2022/03/25 05:42:02;;;;;;;;;;;;;;;;;;5115561;28;19912;-22
2022/03/25 05:44:30;;;;;;;;;;;;;;;;;;5115664;28;20391;-22
2022/03/25 05:46:56;;;;;;;;;;;;;;;;;;5115310;28;19908;-22
2022/03/25 05:49:22;;;;;;;;;;;;;;;;;;5115499;28;20265;-22
2022/03/25 05:51:48;;;;;;;;;;;;;;;;;;5115224;28;19908;-22
2022/03/25 05:54:14;;;;;;;;;;;;;;;;;;5115730;28;20353;-22
2022/03/25 05:56:40;;;;;;;;;;;;;;;;;;5115562;28;19915;-23
2022/03/25 05:59:06;;;;;;;;;;;;;;;;;;5115253;28;19919;-23
2022/03/25 06:01:32;;;;;;;;;;;;;;;;;;5097219;28;20231;-22
2022/03/25 06:03:58;;;;;;;;;;;;;;;;;;5115304;28;19919;-22
2022/03/25 06:06:24;;;;;;;;;;;;;;;;;;5115345;28;20363;-23
2022/03/25 06:08:50;;;;;;;;;;;;;;;;;;5115453;28;19968;-22
2022/03/25 06:11:16;;;;;;;;;;;;;;;;;;5097089;28;20331;-22
2022/03/25 06:13:42;;;;;;;;;;;;;;;;;;5115429;28;19923;-22
2022/03/25 06:16:08;;;;;;;;;;;;;;;;;;5115637;28;19970;-22
2022/03/25 06:18:34;;;;;;;;;;;;;;;;;;5097084;28;19926;-23
2022/03/25 06:21:00;;;;;;;;;;;;;;;;;;5115097;28;19916;-22
2022/03/25 06:23:26;;;;;;;;;;;;;;;;;;5115041;28;19912;-22
2022/03/25 06:25:52;;;;;;;;;;;;;;;;;;5115062;28;20398;-23
2022/03/25 06:28:18;;;;;;;;;;;;;;;;;;5114892;28;20215;-22
2022/03/25 06:30:44;;;;;;;;;;;;;;;;;;5115067;28;20007;-22
2022/03/25 06:33:10;;;;;;;;;;;;;;;;;;5114906;28;20322;-22
2022/03/25 06:35:36;;;;;;;;;;;;;;;;;;5099037;28;19955;-21
2022/03/25 06:38:04;;;;;;;;;;;;;;;;;;5118740;28;19950;-22
2022/03/25 06:40:30;;;;;;;;;;;;;;;;;;5119075;28;19916;-23
2022/03/25 06:42:57;;;;;;;;;;;;;;;;;;5118660;28;19915;-23
2022/03/25 06:45:23;;;;;;;;;;;;;;;;;;5118601;28;19912;-22
2022/03/25 06:47:49;;;;;;;;;;;;;;;;;;5118626;28;19914;-25
2022/03/25 06:50:15;;;;;;;;;;;;;;;;;;5118903;28;19912;-23
2022/03/25 06:52:41;;;;;;;;;;;;;;;;;;5118663;28;19938;-23
2022/03/25 06:55:07;;;;;;;;;;;;;;;;;;5118211;28;19907;-22
2022/03/25 06:57:33;;;;;;;;;;;;;;;;;;5118436;28;19922;-22
2022/03/25 06:59:59;;;;;;;;;;;;;;;;;;5118664;28;19915;-22
2022/03/25 07:02:25;;;;;;;;;;;;;;;;;;5118481;28;19969;-22
2022/03/25 07:04:51;;;;;;;;;;;;;;;;;;5117955;28;20338;-23
2022/03/25 07:07:17;;;;;;;;;;;;;;;;;;5118264;28;20006;-22
2022/03/25 07:09:43;;;;;;;;;;;;;;;;;;5100563;28;20322;-21
2022/03/25 07:12:09;;;;;;;;;;;;;;;;;;5100135;28;20373;-22
2022/03/25 07:14:35;;;;;;;;;;;;;;;;;;5118655;28;19911;-23
2022/03/25 07:17:01;;;;;;;;;;;;;;;;;;5117981;28;19907;-22
2022/03/25 07:19:28;;;;;;;;;;;;;;;;;;5118066;28;19931;-23
2022/03/25 07:21:54;;;;;;;;;;;;;;;;;;5118042;28;19916;-22
2022/03/25 07:24:21;;;;;;;;;;;;;;;;;;5117988;28;19922;-24
2022/03/25 07:26:47;;;;;;;;;;;;;;;;;;5118265;28;20220;-23
2022/03/25 07:29:13;;;;;;;;;;;;;;;;;;5118363;28;19915;-22
2022/03/25 07:31:39;;;;;;;;;;;;;;;;;;5117877;28;19908;-22
2022/03/25 07:34:06;;;;;;;;;;;;;;;;;;5117653;28;19943;-22
2022/03/25 07:36:32;;;;;;;;;;;;;;;;;;5117827;28;20215;-22
2022/03/25 07:38:58;;;;;;;;;;;;;;;;;;5117769;28;19922;-22
2022/03/25 07:41:24;;;;;;;;;;;;;;;;;;5117544;28;20342;-22
2022/03/25 07:43:50;;;;;;;;;;;;;;;;;;5117489;28;20410;-27
2022/03/25 07:46:16;;;;;;;;;;;;;;;;;;5116140;28;19912;-24
2022/03/25 07:48:42;;;;;;;;;;;;;;;;;;5117271;28;19972;-22
2022/03/25 07:51:08;;;;;;;;;;;;;;;;;;5117409;28;20308;-23
2022/03/25 07:53:34;;;;;;;;;;;;;;;;;;5117614;28;19915;-23
2022/03/25 07:56:01;;;;;;;;;;;;;;;;;;5117420;28;19911;-22
2022/03/25 07:58:27;;;;;;;;;;;;;;;;;;5117555;28;19912;-22
2022/03/25 08:00:53;;;;;;;;;;;;;;;;;;5117745;28;20367;-22
2022/03/25 08:03:19;;;;;;;;;;;;;;;;;;5117180;28;19973;-22
2022/03/25 08:05:45;;;;;;;;;;;;;;;;;;5117172;28;19919;-22
2022/03/25 08:08:11;;;;;;;;;;;;;;;;;;5117276;28;19939;-23
2022/03/25 08:10:39;;;;;;;;;;;;;;;;;;5117100;28;19918;-23
2022/03/25 08:13:05;;;;;;;;;;;;;;;;;;5117107;28;19912;-23
2022/03/25 08:15:32;;;;;;;;;;;;;;;;;;5117045;28;19912;-22
2022/03/25 08:17:58;;;;;;;;;;;;;;;;;;5117018;28;19919;-22
2022/03/25 08:20:24;;;;;;;;;;;;;;;;;;5116975;28;20266;-22
2022/03/25 08:22:50;;;;;;;;;;;;;;;;;;5116607;28;20002;-22
2022/03/25 08:28:01;;;;;;;;;;;;;;;;;;5116700;28;19922;-22
2022/03/25 08:30:27;;;;;;;;;;;;;;;;;;5116752;28;19908;-23
2022/03/25 08:32:53;;;;;;;;;;;;;;;;;;5116410;28;20274;-23
2022/03/25 08:35:19;;;;;;;;;;;;;;;;;;5116426;28;19995;-23
2022/03/25 08:37:45;;;;;;;;;;;;;;;;;;5116395;28;19912;-22
2022/03/25 08:40:11;;;;;;;;;;;;;;;;;;5116523;28;19907;-22
2022/03/25 08:42:37;;;;;;;;;;;;;;;;;;5116489;28;19927;-21
2022/03/25 08:45:03;;;;;;;;;;;;;;;;;;5116307;28;20250;-21
2022/03/25 08:47:29;;;;;;;;;;;;;;;;;;5116330;28;19912;-22
2022/03/25 08:49:55;;;;;;;;;;;;;;;;;;5116870;28;19981;-21
2022/03/25 08:52:21;;;;;;;;;;;;;;;;;;5116474;28;20330;-22
2022/03/25 08:54:48;;;;;;;;;;;;;;;;;;5116496;28;20258;-22
2022/03/25 08:57:14;;;;;;;;;;;;;;;;;;5116409;28;19907;-22
2022/03/25 08:59:40;;;;;;;;;;;;;;;;;;5116166;28;19969;-22
2022/03/25 09:02:06;;;;;;;;;;;;;;;;;;5098027;28;19955;-22
2022/03/25 09:04:32;;;;;;;;;;;;;;;;;;5115854;28;19926;-22
2022/03/25 09:06:58;;;;;;;;;;;;;;;;;;5116047;28;20392;-21
2022/03/25 09:09:24;;;;;;;;;;;;;;;;;;5116242;28;20269;-22
2022/03/25 09:11:52;;;;;;;;;;;;;;;;;;5115052;28;21518;-22
2022/03/25 09:14:18;;;;;;;;;;;;;;;;;;5116876;28;19912;-22
2022/03/25 09:16:44;;;;;;;;;;;;;;;;;;5115796;28;19908;-22
2022/03/25 09:19:10;;;;;;;;;;;;;;;;;;5115802;28;19912;-25
2022/03/25 09:21:36;;;;;;;;;;;;;;;;;;5115896;28;19984;-23
2022/03/25 09:24:02;;;;;;;;;;;;;;;;;;5115900;28;19971;-22
2022/03/25 09:26:28;;;;;;;;;;;;;;;;;;5115710;28;20316;-22
2022/03/25 09:28:54;;;;;;;;;;;;;;;;;;5097641;28;19916;-21
2022/03/25 09:31:20;;;;;;;;;;;;;;;;;;5115979;28;20289;-21
2022/03/25 09:33:46;;;;;;;;;;;;;;;;;;5115528;28;19918;-22
2022/03/25 09:36:12;;;;;;;;;;;;;;;;;;5115523;28;19908;-21
2022/03/25 09:38:38;;;;;;;;;;;;;;;;;;5097649;28;19919;-21
2022/03/25 09:41:06;;;;;;;;;;;;;;;;;;5115777;28;19916;-22
2022/03/25 09:43:32;;;;;;;;;;;;;;;;;;5115477;28;19919;-21
2022/03/25 09:45:58;;;;;;;;;;;;;;;;;;5115345;28;20377;-23
2022/03/25 09:48:24;;;;;;;;;;;;;;;;;;5115682;28;19912;-24
2022/03/25 09:50:50;;;;;;;;;;;;;;;;;;5115597;28;19912;-23
2022/03/25 09:53:16;;;;;;;;;;;;;;;;;;5115237;28;19912;-21
2022/03/25 09:55:42;;;;;;;;;;;;;;;;;;5097334;28;19908;-19
2022/03/25 09:58:08;;;;;;;;;;;;;;;;;;5115753;28;20419;-22
2022/03/25 10:00:34;;;;;;;;;;;;;;;;;;5115305;28;19912;-28
2022/03/25 10:03:00;;;;;;;;;;;;;;;;;;5097231;28;19926;-21
2022/03/25 10:05:26;;;;;;;;;;;;;;;;;;5115670;28;19923;-21
2022/03/25 10:07:54;;;;;;;;;;;;;;;;;;5115257;28;19908;-21
2022/03/25 10:10:21;;;;;;;;;;;;;;;;;;5117138;28;19977;-21
2022/03/25 10:12:47;;;;;;;;;;;;;;;;;;5119550;28;19908;-22
2022/03/25 10:15:13;;;;;;;;;;;;;;;;;;5119394;28;19912;-24
2022/03/25 10:17:39;;;;;;;;;;;;;;;;;;5119662;28;20250;-21
2022/03/25 10:20:05;;;;;;;;;;;;;;;;;;5119295;28;19908;-21
2022/03/25 10:22:31;;;;;;;;;;;;;;;;;;5119108;28;19916;-21
2022/03/25 10:24:57;;;;;;;;;;;;;;;;;;5119490;28;19923;-21
2022/03/25 10:27:23;;;;;;;;;;;;;;;;;;5101161;28;20334;-21
2022/03/25 10:29:56;;;;;;;;;;;;;;;;;;5119081;28;19913;-21
2022/03/25 10:32:26;;;;;;;;;;;;;;;;;;5119566;28;19957;-21
2022/03/25 10:34:52;;;;;;;;;;;;;;;;;;5119130;28;20303;-22
2022/03/25 10:37:18;;;;;;;;;;;;;;;;;;5100834;28;19964;-21
2022/03/25 10:39:44;;;;;;;;;;;;;;;;;;5118714;28;19998;-21
2022/03/25 10:42:10;;;;;;;;;;;;;;;;;;5119051;28;19924;-21
2022/03/25 10:44:36;;;;;;;;;;;;;;;;;;5118816;28;19908;-22
2022/03/25 10:47:02;;;;;;;;;;;;;;;;;;5101578;28;19912;-21
2022/03/25 10:49:28;;;;;;;;;;;;;;;;;;5118445;28;20330;-23
2022/03/25 10:51:55;;;;;;;;;;;;;;;;;;5100562;28;19908;-23
2022/03/25 10:54:21;;;;;;;;;;;;;;;;;;5100754;28;19912;-21
2022/03/25 10:56:47;;;;;;;;;;;;;;;;;;5119132;28;19996;-21
2022/03/25 10:59:13;;;;;;;;;;;;;;;;;;5119089;28;19912;-21
2022/03/25 11:01:39;;;;;;;;;;;;;;;;;;5118534;28;19916;-23
2022/03/25 11:04:05;;;;;;;;;;;;;;;;;;5118265;28;20072;-20
2022/03/25 11:06:31;;;;;;;;;;;;;;;;;;5118076;28;19937;-22
2022/03/25 11:08:57;;;;;;;;;;;;;;;;;;5118543;28;19949;-23
2022/03/25 11:11:23;;;;;;;;;;;;;;;;;;5118574;28;19908;-23
2022/03/25 11:13:49;;;;;;;;;;;;;;;;;;5118306;28;19916;-24
2022/03/25 11:16:16;;;;;;;;;;;;;;;;;;5100227;28;20375;-22
2022/03/25 11:18:42;;;;;;;;;;;;;;;;;;5118075;28;19943;-26
2022/03/25 11:21:09;;;;;;;;;;;;;;;;;;5118315;28;20003;-23
2022/03/25 11:23:35;;;;;;;;;;;;;;;;;;5117932;28;19912;-22
2022/03/25 11:26:03;;;;;;;;;;;;;;;;;;5117979;28;20266;-22
2022/03/25 11:28:29;;;;;;;;;;;;;;;;;;5118517;28;19908;-22
2022/03/25 11:30:55;;;;;;;;;;;;;;;;;;5117762;28;19912;-22
2022/03/25 11:33:21;;;;;;;;;;;;;;;;;;5117955;28;19922;-22
2022/03/25 11:35:47;;;;;;;;;;;;;;;;;;5118022;28;19922;-23
2022/03/25 11:38:13;;;;;;;;;;;;;;;;;;5117588;28;19923;-22
2022/03/25 11:40:39;;;;;;;;;;;;;;;;;;5117485;28;19907;-23
2022/03/25 11:43:07;;;;;;;;;;;;;;;;;;5117354;28;19911;-22
2022/03/25 11:45:34;;;;;;;;;;;;;;;;;;5117536;28;19908;-22
2022/03/25 11:48:00;;;;;;;;;;;;;;;;;;5117899;28;19915;-23
2022/03/25 11:50:26;;;;;;;;;;;;;;;;;;5117726;28;19923;-23
2022/03/25 11:52:52;;;;;;;;;;;;;;;;;;5117485;28;19918;-22
2022/03/25 11:55:18;;;;;;;;;;;;;;;;;;5117420;28;19908;-22
2022/03/25 11:57:44;;;;;;;;;;;;;;;;;;5117326;28;19919;-22
2022/03/25 12:00:11;;;;;;;;;;;;;;;;;;5117187;28;19912;-22
2022/03/25 12:02:37;;;;;;;;;;;;;;;;;;5099140;28;20396;-22
2022/03/25 12:05:03;;;;;;;;;;;;;;;;;;5116944;28;20371;-22
2022/03/25 12:07:29;;;;;;;;;;;;;;;;;;5117393;28;19915;-22
2022/03/25 12:09:55;;;;;;;;;;;;;;;;;;5099114;28;19912;-23
2022/03/25 12:12:21;;;;;;;;;;;;;;;;;;5117097;28;19908;-22
2022/03/25 12:14:47;;;;;;;;;;;;;;;;;;5099775;28;19911;-22
2022/03/25 12:17:14;;;;;;;;;;;;;;;;;;5116907;28;19922;-23
2022/03/25 12:19:41;;;;;;;;;;;;;;;;;;5117012;28;19954;-23
2022/03/25 12:22:07;;;;;;;;;;;;;;;;;;5116484;28;19916;-23
2022/03/25 12:24:33;;;;;;;;;;;;;;;;;;5116919;28;19957;-21
2022/03/25 12:27:00;;;;;;;;;;;;;;;;;;5116525;28;19929;-22
2022/03/25 12:29:26;;;;;;;;;;;;;;;;;;5116695;28;20354;-22
2022/03/25 12:31:52;;;;;;;;;;;;;;;;;;5098375;28;19908;-22
2022/03/25 12:34:18;;;;;;;;;;;;;;;;;;5116301;28;20294;-21
2022/03/25 12:36:44;;;;;;;;;;;;;;;;;;5116693;28;19911;-23
2022/03/25 12:39:10;;;;;;;;;;;;;;;;;;5116223;28;20274;-22
2022/03/25 12:41:36;;;;;;;;;;;;;;;;;;5098090;28;19912;-22
2022/03/25 12:44:02;;;;;;;;;;;;;;;;;;5116232;28;19912;-22
2022/03/25 12:46:28;;;;;;;;;;;;;;;;;;5098487;28;20007;-23
2022/03/25 12:48:54;;;;;;;;;;;;;;;;;;5116489;28;20250;-22
2022/03/25 12:51:20;;;;;;;;;;;;;;;;;;5098414;28;20003;-22
2022/03/25 12:53:48;;;;;;;;;;;;;;;;;;5116162;28;20227;-22
2022/03/25 12:56:14;;;;;;;;;;;;;;;;;;5116506;28;19918;-23
2022/03/25 12:58:40;;;;;;;;;;;;;;;;;;5116120;28;19920;-22
2022/03/25 13:01:06;;;;;;;;;;;;;;;;;;5116031;28;20354;-22
2022/03/25 13:03:32;;;;;;;;;;;;;;;;;;5115804;28;19924;-22
2022/03/25 13:05:59;;;;;;;;;;;;;;;;;;5115818;28;19919;-24
2022/03/25 13:08:25;;;;;;;;;;;;;;;;;;5115770;28;19942;-23
2022/03/25 13:10:51;;;;;;;;;;;;;;;;;;5115810;28;19912;-23
2022/03/25 13:13:17;;;;;;;;;;;;;;;;;;5115725;28;19915;-22
2022/03/25 13:15:45;;;;;;;;;;;;;;;;;;5115818;28;19915;-21
2022/03/25 13:18:11;;;;;;;;;;;;;;;;;;5115944;28;20381;-22
2022/03/25 13:20:37;;;;;;;;;;;;;;;;;;5115778;28;20253;-23
2022/03/25 13:23:04;;;;;;;;;;;;;;;;;;5115454;28;19916;-22
2022/03/25 13:25:30;;;;;;;;;;;;;;;;;;5115572;28;19911;-22
2022/03/25 13:27:56;;;;;;;;;;;;;;;;;;5115719;28;19912;-22
2022/03/25 13:30:23;;;;;;;;;;;;;;;;;;5097627;28;20354;-22
2022/03/25 13:32:49;;;;;;;;;;;;;;;;;;5097635;28;19919;-22
2022/03/25 13:35:15;;;;;;;;;;;;;;;;;;5115463;28;19923;-22
2022/03/25 13:37:41;;;;;;;;;;;;;;;;;;5115177;28;19919;-22
2022/03/25 13:40:07;;;;;;;;;;;;;;;;;;5097337;28;19911;-21
2022/03/25 13:42:33;;;;;;;;;;;;;;;;;;5115308;28;20262;-22
2022/03/25 13:44:59;;;;;;;;;;;;;;;;;;5115492;28;19914;-23
2022/03/25 13:47:25;;;;;;;;;;;;;;;;;;5115324;28;19912;-22
2022/03/25 13:49:51;;;;;;;;;;;;;;;;;;5115816;28;20215;-22
2022/03/25 13:52:17;;;;;;;;;;;;;;;;;;5115335;28;19950;-22
2022/03/25 13:54:43;;;;;;;;;;;;;;;;;;5115119;28;19923;-23
2022/03/25 13:57:09;;;;;;;;;;;;;;;;;;5115268;28;20040;-22
2022/03/25 13:59:43;;;;;;;;;;;;;;;;;;5115217;28;19954;-23
2022/03/25 14:02:09;;;;;;;;;;;;;;;;;;5115187;28;19919;-23
2022/03/25 14:04:36;;;;;;;;;;;;;;;;;;5114980;28;19988;-22
2022/03/25 14:07:02;;;;;;;;;;;;;;;;;;5115089;28;19912;-22
2022/03/25 14:09:29;;;;;;;;;;;;;;;;;;5114982;28;19911;-22
2022/03/25 14:11:55;;;;;;;;;;;;;;;;;;5115044;28;19999;-22
2022/03/25 14:14:20;;;;;;;;;;;;;;;;;;5115107;28;20401;-22
2022/03/25 14:16:46;;;;;;;;;;;;;;;;;;5097177;28;20007;-23
2022/03/25 14:19:12;;;;;;;;;;;;;;;;;;5115226;28;19912;-23
2022/03/25 14:21:38;;;;;;;;;;;;;;;;;;5097240;28;19915;-23
2022/03/25 14:26:50;;;;;;;;;;;;;;;;;;5115537;28;20310;-20
2022/03/25 14:29:16;;;;;;;;;;;;;;;;;;5115542;28;20330;-23
2022/03/25 14:31:45;;;;;;;;;;;;;;;;;;5097090;28;19912;-22
2022/03/25 14:34:11;;;;;;;;;;;;;;;;;;5097194;28;19919;-22
2022/03/25 14:36:37;;;;;;;;;;;;;;;;;;5115067;28;19911;-21
2022/03/25 14:39:03;;;;;;;;;;;;;;;;;;5115114;28;19919;-22
2022/03/25 14:41:29;;;;;;;;;;;;;;;;;;5115539;28;19935;-22
2022/03/25 14:43:55;;;;;;;;;;;;;;;;;;5115034;28;19907;-22
2022/03/25 14:46:21;;;;;;;;;;;;;;;;;;5115101;28;20331;-23
2022/03/25 14:48:48;;;;;;;;;;;;;;;;;;5115029;28;19912;-21
2022/03/25 14:51:14;;;;;;;;;;;;;;;;;;5115312;28;20212;-22
2022/03/25 14:53:40;;;;;;;;;;;;;;;;;;5115191;28;20311;-22
2022/03/25 14:56:06;;;;;;;;;;;;;;;;;;5116231;28;20347;-23
2022/03/25 14:58:32;;;;;;;;;;;;;;;;;;5118693;28;19911;-23
2022/03/25 15:00:58;;;;;;;;;;;;;;;;;;5100576;28;19907;-22
2022/03/25 15:03:25;;;;;;;;;;;;;;;;;;5118395;28;19976;-22
2022/03/25 15:05:51;;;;;;;;;;;;;;;;;;5100480;28;19930;-21
2022/03/25 15:08:17;;;;;;;;;;;;;;;;;;5119049;28;19931;-22
2022/03/25 15:10:43;;;;;;;;;;;;;;;;;;5119467;28;19969;-22
2022/03/25 15:13:09;;;;;;;;;;;;;;;;;;5118412;28;19919;-22
2022/03/25 15:15:35;;;;;;;;;;;;;;;;;;5118962;28;19912;-21
2022/03/25 15:18:01;;;;;;;;;;;;;;;;;;5118267;28;19973;-22
2022/03/25 15:20:27;;;;;;;;;;;;;;;;;;5118428;28;19997;-22
2022/03/25 15:22:53;;;;;;;;;;;;;;;;;;5118560;28;19911;-22
2022/03/25 15:25:20;;;;;;;;;;;;;;;;;;5118228;28;19980;-23
2022/03/25 15:27:46;;;;;;;;;;;;;;;;;;5118177;28;20391;-25
2022/03/25 15:35:41;;;;;;;;;;;;;;;;;;5117772;28;19937;-22
2022/03/25 15:38:07;;;;;;;;;;;;;;;;;;5117969;28;19998;-23
2022/03/25 15:40:33;;;;;;;;;;;;;;;;;;5117948;28;19912;-22
2022/03/25 15:42:59;;;;;;;;;;;;;;;;;;5117517;28;20188;-29
2022/03/25 15:45:25;;;;;;;;;;;;;;;;;;5117611;28;19915;-22
2022/03/25 15:47:51;;;;;;;;;;;;;;;;;;5117710;28;19923;-22
2022/03/25 15:50:17;;;;;;;;;;;;;;;;;;5099738;28;20342;-26
2022/03/25 15:52:43;;;;;;;;;;;;;;;;;;5117560;28;20338;-22
2022/03/25 15:55:09;;;;;;;;;;;;;;;;;;5099476;28;19918;-22
2022/03/25 15:57:51;;;;;;;;;;;;;;;;;;5117909;28;20062;-22
2022/03/25 16:00:17;;;;;;;;;;;;;;;;;;5099304;28;19907;-23
2022/03/25 16:02:43;;;;;;;;;;;;;;;;;;5117366;28;19920;-23
2022/03/25 16:05:09;;;;;;;;;;;;;;;;;;5116996;28;19988;-22
2022/03/25 16:07:37;;;;;;;;;;;;;;;;;;5116098;28;20346;-23
2022/03/25 16:10:03;;;;;;;;;;;;;;;;;;5117701;28;19914;-22
2022/03/25 16:12:29;;;;;;;;;;;;;;;;;;5116995;28;19939;-23
2022/03/25 16:14:55;;;;;;;;;;;;;;;;;;5117598;28;19998;-23
2022/03/25 16:17:21;;;;;;;;;;;;;;;;;;5116941;28;19915;-23
2022/03/25 16:19:47;;;;;;;;;;;;;;;;;;5116962;28;20319;-23
2022/03/25 16:22:13;;;;;;;;;;;;;;;;;;5117066;28;19915;-22
2022/03/25 16:24:40;;;;;;;;;;;;;;;;;;5116851;28;19922;-24
2022/03/25 16:27:06;;;;;;;;;;;;;;;;;;5116779;28;20002;-22
2022/03/25 16:29:32;;;;;;;;;;;;;;;;;;5117413;28;19962;-23
2022/03/25 16:31:59;;;;;;;;;;;;;;;;;;5116756;28;19915;-22
2022/03/25 16:34:25;;;;;;;;;;;;;;;;;;5117436;28;19934;-22
2022/03/25 16:36:51;;;;;;;;;;;;;;;;;;5116790;28;20342;-22
2022/03/25 16:39:17;;;;;;;;;;;;;;;;;;5116792;28;20045;-22
2022/03/25 16:41:43;;;;;;;;;;;;;;;;;;5116977;28;19912;-23
2022/03/25 16:44:09;;;;;;;;;;;;;;;;;;5116577;28;19911;-24
2022/03/25 16:46:35;;;;;;;;;;;;;;;;;;5116400;28;19960;-23
2022/03/25 16:49:01;;;;;;;;;;;;;;;;;;5117045;28;19915;-22